Impacts TAF Board INFO
FOR SITUATIONAL AWARENESS. NOT TO BE USED FOR FLIGHT PLANNING PURPOSES.
IDs:

KLGA - New York/La Guardia, NY, US

Issued at 2236 UTC 24 May 2018
Updated at 2314 UTC 24 May 2018
Potential Impact None Slight Moderate High
Time<<26/00Z 26/01Z 26/02Z 26/03Z 26/04Z 26/05Z 26/06Z 26/07Z 26/08Z 26/09Z 26/10Z 26/11Z 26/12Z
Type
VIS
CIG
Cover
FltCat
WX
WDir
WSpd
WGst

Raw TAF
KLGA 242236Z 2423/2524 17013KT P6SM SKC
  FM250200 21006KT P6SM SKC
  FM250900 24005KT P6SM SKC
  FM251500 24010KT P6SM SKC
  FM251800 22014G22KT P6SM SKC


METAR Board
Radar Display
Forecast Discussion

FOR SITUATIONAL AWARENESS. NOT TO BE USED FOR FLIGHT PLANNING PURPOSES.